TimeEDT,TemperatureF,Dew PointF,Humidity,Sea Level PressureIn,VisibilityMPH,Wind Direction,Wind SpeedMPH,Gust SpeedMPH,PrecipitationIn,Events,Conditions,WindDirDegrees,DateUTC
12:17 AM,56.1,50.0,80,30.15,10.0,Calm,Calm,-,N/A,,Clear,0,2013-09-05 04:17:00
12:36 AM,54.7,50.2,85,30.15,10.0,Calm,Calm,-,N/A,,Clear,0,2013-09-05 04:36:00
12:57 AM,52.9,49.8,89,30.15,10.0,Calm,Calm,-,N/A,,Clear,0,2013-09-05 04:57:00
1:17 AM,51.8,49.3,91,30.16,10.0,Calm,Calm,-,N/A,,Clear,0,2013-09-05 05:17:00
1:36 AM,52.2,49.5,91,30.16,10.0,Calm,Calm,-,N/A,,Clear,0,2013-09-05 05:36:00
1:57 AM,51.6,48.7,90,30.15,10.0,Calm,Calm,-,N/A,,Clear,0,2013-09-05 05:57:00
2:17 AM,49.8,47.3,91,30.15,10.0,Calm,Calm,-,N/A,,Clear,0,2013-09-05 06:17:00
2:36 AM,51.6,48.7,90,30.15,10.0,WNW,3.5,-,N/A,,Clear,290,2013-09-05 06:36:00
2:57 AM,51.4,48.0,88,30.16,10.0,WNW,3.5,-,N/A,,Clear,290,2013-09-05 06:57:00
3:17 AM,51.3,47.5,87,30.16,10.0,West,3.5,-,N/A,,Clear,280,2013-09-05 07:17:00
3:36 AM,51.4,47.1,85,30.17,10.0,Calm,Calm,-,N/A,,Clear,0,2013-09-05 07:36:00
3:57 AM,49.3,46.4,90,30.18,10.0,North,3.5,-,N/A,,Clear,360,2013-09-05 07:57:00
4:17 AM,48.6,46.0,91,30.19,10.0,Calm,Calm,-,N/A,,Clear,0,2013-09-05 08:17:00
4:36 AM,48.4,46.0,92,30.19,10.0,Calm,Calm,-,N/A,,Clear,0,2013-09-05 08:36:00
4:57 AM,48.2,46.0,92,30.20,10.0,North,3.5,-,N/A,,Clear,360,2013-09-05 08:57:00
5:17 AM,48.6,45.3,89,30.21,10.0,Calm,Calm,-,N/A,,Clear,0,2013-09-05 09:17:00
5:36 AM,48.4,44.8,87,30.21,10.0,Calm,Calm,-,N/A,,Clear,0,2013-09-05 09:36:00
5:57 AM,47.7,44.6,89,30.21,10.0,Calm,Calm,-,N/A,,Clear,0,2013-09-05 09:57:00
6:17 AM,46.4,43.9,91,30.22,10.0,Calm,Calm,-,N/A,,Clear,0,2013-09-05 10:17:00
6:36 AM,46.6,44.4,92,30.23,10.0,Calm,Calm,-,N/A,,Clear,0,2013-09-05 10:36:00
6:57 AM,46.8,44.8,93,30.24,10.0,West,3.5,-,N/A,,Clear,270,2013-09-05 10:57:00
7:17 AM,46.2,44.1,92,30.24,10.0,Calm,Calm,-,N/A,,Clear,0,2013-09-05 11:17:00
7:36 AM,46.8,44.6,92,30.25,10.0,Calm,Calm,-,N/A,,Clear,0,2013-09-05 11:36:00
7:57 AM,48.2,45.1,89,30.26,10.0,Calm,Calm,-,N/A,,Clear,0,2013-09-05 11:57:00
8:17 AM,49.6,45.3,85,30.27,10.0,NW,3.5,-,N/A,,Clear,320,2013-09-05 12:17:00
8:36 AM,50.4,45.5,83,30.27,10.0,NNW,4.6,-,N/A,,Clear,340,2013-09-05 12:36:00
8:57 AM,51.3,46.0,82,30.28,10.0,North,4.6,-,N/A,,Clear,350,2013-09-05 12:57:00
9:16 AM,52.5,47.1,82,30.28,10.0,NNE,6.9,-,N/A,,Clear,20,2013-09-05 13:16:00
9:37 AM,53.8,47.3,79,30.28,10.0,North,5.8,-,N/A,,Clear,350,2013-09-05 13:37:00
9:57 AM,55.0,47.5,76,30.29,10.0,NNW,5.8,-,N/A,,Clear,340,2013-09-05 13:57:00
10:16 AM,56.5,47.7,72,30.29,10.0,North,5.8,-,N/A,,Clear,360,2013-09-05 14:16:00
10:37 AM,57.9,46.9,67,30.29,10.0,North,5.8,-,N/A,,Clear,360,2013-09-05 14:37:00
10:57 AM,59.7,47.7,64,30.29,10.0,North,4.6,-,N/A,,Clear,350,2013-09-05 14:57:00
11:16 AM,59.7,45.0,58,30.29,10.0,North,6.9,-,N/A,,Clear,360,2013-09-05 15:16:00
11:37 AM,60.6,44.1,54,30.29,10.0,NNE,8.1,-,N/A,,Clear,20,2013-09-05 15:37:00
11:57 AM,61.3,44.2,53,30.29,10.0,North,5.8,-,N/A,,Clear,360,2013-09-05 15:57:00
12:16 PM,62.4,44.6,52,30.28,10.0,NE,3.5,-,N/A,,Clear,40,2013-09-05 16:16:00
12:37 PM,63.3,44.6,50,30.28,10.0,Calm,Calm,-,N/A,,Clear,0,2013-09-05 16:37:00
12:57 PM,63.5,42.8,47,30.28,10.0,NNW,3.5,-,N/A,,Clear,330,2013-09-05 16:57:00
1:16 PM,64.4,42.8,45,30.28,10.0,North,6.9,-,N/A,,Clear,350,2013-09-05 17:16:00
1:37 PM,64.8,42.3,44,30.28,10.0,NNW,4.6,-,N/A,,Clear,340,2013-09-05 17:37:00
1:57 PM,64.9,42.4,44,30.28,10.0,North,6.9,-,N/A,,Clear,360,2013-09-05 17:57:00
2:16 PM,66.0,41.5,41,30.28,10.0,North,5.8,-,N/A,,Clear,10,2013-09-05 18:16:00
2:37 PM,66.7,40.8,39,30.27,10.0,NNW,3.5,-,N/A,,Clear,330,2013-09-05 18:37:00
2:56 PM,66.6,39.6,37,30.27,10.0,NNW,4.6,-,N/A,,Clear,330,2013-09-05 18:56:00
3:16 PM,67.3,38.8,35,30.26,10.0,North,5.8,-,N/A,,Clear,360,2013-09-05 19:16:00
3:37 PM,67.6,40.1,37,30.26,10.0,NW,3.5,-,N/A,,Clear,310,2013-09-05 19:37:00
3:56 PM,67.6,39.4,36,30.26,10.0,Calm,Calm,-,N/A,,Clear,0,2013-09-05 19:56:00
4:16 PM,68.2,39.4,35,30.26,10.0,NNE,3.5,-,N/A,,Clear,30,2013-09-05 20:16:00
4:37 PM,68.7,39.4,34,30.25,10.0,NNE,5.8,-,N/A,,Clear,20,2013-09-05 20:37:00
4:56 PM,68.0,37.8,33,30.25,10.0,NNE,3.5,-,N/A,,Clear,20,2013-09-05 20:56:00
5:16 PM,68.5,37.8,32,30.25,10.0,NNE,5.8,-,N/A,,Clear,30,2013-09-05 21:16:00
5:37 PM,68.9,39.0,34,30.24,10.0,North,5.8,-,N/A,,Clear,10,2013-09-05 21:37:00
5:56 PM,68.2,39.0,34,30.24,10.0,NNW,3.5,-,N/A,,Clear,330,2013-09-05 21:56:00
6:17 PM,68.0,38.5,34,30.24,10.0,NNE,3.5,-,N/A,,Clear,30,2013-09-05 22:17:00
6:37 PM,68.0,39.4,35,30.24,10.0,Calm,Calm,-,N/A,,Clear,0,2013-09-05 22:37:00
6:56 PM,67.6,39.4,36,30.24,10.0,North,3.5,-,N/A,,Clear,10,2013-09-05 22:56:00
7:17 PM,65.5,41.9,42,30.24,10.0,Calm,Calm,-,N/A,,Clear,0,2013-09-05 23:17:00
7:37 PM,62.1,45.1,54,30.24,10.0,Calm,Calm,-,N/A,,Clear,0,2013-09-05 23:37:00
7:56 PM,61.0,48.2,63,30.24,10.0,Calm,Calm,-,N/A,,Clear,0,2013-09-05 23:56:00
8:17 PM,57.4,45.9,65,30.24,10.0,Calm,Calm,-,N/A,,Clear,0,2013-09-06 00:17:00
8:37 PM,55.4,46.8,73,30.25,10.0,Calm,Calm,-,N/A,,Clear,0,2013-09-06 00:37:00
8:56 PM,53.4,47.7,81,30.25,10.0,Calm,Calm,-,N/A,,Clear,0,2013-09-06 00:56:00
9:17 PM,52.7,48.2,85,30.25,10.0,Calm,Calm,-,N/A,,Clear,0,2013-09-06 01:17:00
9:36 PM,52.2,48.2,86,30.26,10.0,Calm,Calm,-,N/A,,Clear,0,2013-09-06 01:36:00
9:56 PM,52.5,48.4,86,30.26,10.0,Calm,Calm,-,N/A,,Clear,0,2013-09-06 01:56:00
10:17 PM,50.9,47.5,88,30.26,10.0,Calm,Calm,-,N/A,,Clear,0,2013-09-06 02:17:00
10:36 PM,51.3,48.4,90,30.25,10.0,Calm,Calm,-,N/A,,Clear,0,2013-09-06 02:36:00
10:56 PM,50.7,48.0,90,30.26,10.0,Calm,Calm,-,N/A,,Clear,0,2013-09-06 02:56:00
11:17 PM,48.7,46.8,93,30.26,10.0,Calm,Calm,-,N/A,,Clear,0,2013-09-06 03:17:00
11:36 PM,48.2,46.0,92,30.26,10.0,Calm,Calm,-,N/A,,Clear,0,2013-09-06 03:36:00
11:56 PM,47.5,45.7,93,30.26,10.0,Calm,Calm,-,N/A,,Clear,0,2013-09-06 03:56:00